createdAt,value
2016-07-06T00:00:46.810Z,1000.79
2016-07-06T00:01:46.827Z,1000.78
2016-07-06T00:02:46.848Z,1000.8
2016-07-06T00:03:46.867Z,1000.82
2016-07-06T00:04:46.886Z,1000.78
2016-07-06T00:05:46.903Z,1000.88
2016-07-06T00:06:46.922Z,1000.85
2016-07-06T00:07:46.941Z,1000.79
2016-07-06T00:08:46.960Z,1000.83
2016-07-06T00:09:46.975Z,1000.82
2016-07-06T00:10:46.997Z,1000.77
2016-07-06T00:11:47.013Z,1000.84
2016-07-06T00:12:47.028Z,1000.78
2016-07-06T00:13:47.048Z,1000.88
2016-07-06T00:14:47.066Z,1000.81
2016-07-06T00:15:47.085Z,1000.82
2016-07-06T00:16:47.101Z,1000.84
2016-07-06T00:17:47.123Z,1000.9
2016-07-06T00:18:47.137Z,1000.85
2016-07-06T00:19:47.151Z,1000.86
2016-07-06T00:20:47.178Z,1000.83
2016-07-06T00:21:47.192Z,1000.85
2016-07-06T00:22:47.208Z,1000.86
2016-07-06T00:23:47.225Z,1000.89
2016-07-06T00:24:47.247Z,1000.87
2016-07-06T00:25:47.264Z,1000.83
2016-07-06T00:26:47.281Z,1000.84
2016-07-06T00:27:47.302Z,1000.86
2016-07-06T00:28:47.317Z,1000.88
2016-07-06T00:29:47.337Z,1000.89
2016-07-06T00:30:47.352Z,1000.84
2016-07-06T00:31:47.377Z,1000.87
2016-07-06T00:32:47.395Z,1000.9
2016-07-06T00:33:47.411Z,1000.91
2016-07-06T00:34:47.423Z,1000.82
2016-07-06T00:35:47.448Z,1000.87
2016-07-06T00:36:47.462Z,1000.9
2016-07-06T00:37:47.482Z,1000.87
2016-07-06T00:38:47.500Z,1000.89
2016-07-06T00:39:47.511Z,1000.93
2016-07-06T00:40:47.536Z,1000.97
2016-07-06T00:41:47.553Z,1000.94
2016-07-06T00:42:47.573Z,1000.86
2016-07-06T00:43:47.590Z,1000.96
2016-07-06T00:44:47.609Z,1000.94
2016-07-06T00:45:47.626Z,1000.91
2016-07-06T00:46:47.647Z,1000.93
2016-07-06T00:47:47.662Z,1000.97
2016-07-06T00:48:47.680Z,1000.96
2016-07-06T00:49:47.702Z,1000.9
2016-07-06T00:50:47.717Z,1000.99
2016-07-06T00:51:47.734Z,1000.96
2016-07-06T00:52:47.750Z,1000.93
2016-07-06T00:53:47.769Z,1000.98
2016-07-06T00:54:47.790Z,1000.92
2016-07-06T00:55:47.803Z,1000.92
2016-07-06T00:56:47.823Z,1000.93
2016-07-06T00:57:47.843Z,1000.99
2016-07-06T00:58:47.860Z,1000.95
2016-07-06T00:59:47.874Z,1000.95
2016-07-06T01:00:47.894Z,1000.95
2016-07-06T01:01:47.915Z,1000.89
2016-07-06T01:02:47.928Z,1000.89
2016-07-06T01:03:47.947Z,1000.9
2016-07-06T01:04:47.964Z,1000.94
2016-07-06T01:05:47.983Z,1000.9
2016-07-06T01:06:48.002Z,1000.87
2016-07-06T01:07:48.076Z,1000.86
2016-07-06T01:08:48.099Z,1000.84
2016-07-06T01:09:48.115Z,1000.87
2016-07-06T01:10:48.068Z,1000.96
2016-07-06T01:11:48.091Z,1000.91
2016-07-06T01:12:48.109Z,1000.93
2016-07-06T01:13:48.127Z,1000.95
2016-07-06T01:14:48.140Z,1000.96
2016-07-06T01:15:48.163Z,1000.91
2016-07-06T01:16:48.176Z,1000.92
2016-07-06T01:17:48.196Z,1000.97
2016-07-06T01:18:48.209Z,1001
2016-07-06T01:19:48.229Z,1001
2016-07-06T01:20:48.249Z,1000.96
2016-07-06T01:21:48.263Z,1000.94
2016-07-06T01:22:48.286Z,1001
2016-07-06T01:23:48.304Z,1000.93
2016-07-06T01:24:48.323Z,1000.99
2016-07-06T01:25:48.336Z,1000.94
2016-07-06T01:26:48.357Z,1000.99
2016-07-06T01:27:48.371Z,1000.94
2016-07-06T01:28:48.392Z,1000.97
2016-07-06T01:29:48.411Z,1000.92
2016-07-06T01:30:48.428Z,1000.98
2016-07-06T01:31:48.448Z,1000.93
2016-07-06T01:32:48.459Z,1001.01
2016-07-06T01:33:48.483Z,1001.02
2016-07-06T01:34:48.500Z,1001.02
2016-07-06T01:35:48.517Z,1001.05
2016-07-06T01:36:48.534Z,1001.01
2016-07-06T01:37:48.555Z,1000.94
2016-07-06T01:38:48.573Z,1000.96
2016-07-06T01:39:48.586Z,1000.96
2016-07-06T01:40:48.604Z,1000.97
2016-07-06T01:41:48.628Z,1000.97
2016-07-06T01:42:48.645Z,1000.95
2016-07-06T01:43:48.660Z,1001
2016-07-06T01:44:48.678Z,1000.89
2016-07-06T01:45:48.694Z,1000.93
2016-07-06T01:46:48.717Z,1000.98
2016-07-06T01:47:48.735Z,1000.92
2016-07-06T01:48:48.750Z,1001.01
2016-07-06T01:49:48.766Z,1001.02
2016-07-06T01:50:48.782Z,1000.95
2016-07-06T01:51:48.809Z,1001.05
2016-07-06T01:52:48.821Z,1001.04
2016-07-06T01:53:48.833Z,1001.04
2016-07-06T01:54:48.855Z,1001.09
2016-07-06T01:55:48.868Z,1001.1
2016-07-06T01:56:48.890Z,1001.14
2016-07-06T01:57:48.911Z,1001.15
2016-07-06T01:58:48.925Z,1001.2
2016-07-06T01:59:48.944Z,1001.17
2016-07-06T02:00:48.965Z,1001.14
2016-07-06T02:01:48.977Z,1001.14
2016-07-06T02:02:48.999Z,1001.17
2016-07-06T02:03:49.017Z,1001.2
2016-07-06T02:04:49.034Z,1001.2
2016-07-06T02:05:49.051Z,1001.23
2016-07-06T02:06:49.068Z,1001.23
2016-07-06T02:07:49.089Z,1001.21
2016-07-06T02:08:49.106Z,1001.23
2016-07-06T02:09:49.119Z,1001.33
2016-07-06T02:10:49.138Z,1001.19
2016-07-06T02:11:49.159Z,1001.17
2016-07-06T02:12:49.174Z,1001.16
2016-07-06T02:13:49.193Z,1001.19
2016-07-06T02:14:49.208Z,1001.14
2016-07-06T02:15:49.227Z,1001.15
2016-07-06T02:16:49.243Z,1001.22
2016-07-06T02:17:49.261Z,1001.22
2016-07-06T02:18:49.281Z,1001.21
2016-07-06T02:19:49.297Z,1001.24
2016-07-06T02:20:49.316Z,1001.26
2016-07-06T02:21:49.343Z,1001.23
2016-07-06T02:22:49.350Z,1001.24
2016-07-06T02:23:49.366Z,1001.24
2016-07-06T02:24:49.389Z,1001.18
2016-07-06T02:25:49.406Z,1001.23
2016-07-06T02:26:49.422Z,1001.27
2016-07-06T02:27:49.448Z,1001.25
2016-07-06T02:28:49.459Z,1001.2
2016-07-06T02:29:49.473Z,1001.27
2016-07-06T02:30:49.490Z,1001.28
2016-07-06T02:31:49.505Z,1001.28
2016-07-06T02:32:49.524Z,1001.27
2016-07-06T02:33:49.543Z,1001.25
2016-07-06T02:34:49.560Z,1001.32
2016-07-06T02:35:49.578Z,1001.26
2016-07-06T02:36:49.596Z,1001.36
2016-07-06T02:37:49.616Z,1001.25
2016-07-06T02:38:49.624Z,1001.31
2016-07-06T02:39:49.648Z,1001.36
2016-07-06T02:40:49.667Z,1001.34
2016-07-06T02:41:49.681Z,1001.31
2016-07-06T02:42:49.697Z,1001.35
2016-07-06T02:43:49.715Z,1001.4
2016-07-06T02:44:49.739Z,1001.37
2016-07-06T02:45:49.748Z,1001.35
2016-07-06T02:46:49.772Z,1001.37
2016-07-06T02:47:49.783Z,1001.32
2016-07-06T02:48:49.805Z,1001.37
2016-07-06T02:49:49.816Z,1001.34
2016-07-06T02:50:49.837Z,1001.4
2016-07-06T02:51:49.859Z,1001.38
2016-07-06T02:52:49.876Z,1001.37
2016-07-06T02:53:49.893Z,1001.41
2016-07-06T02:54:49.908Z,1001.39
2016-07-06T02:55:49.927Z,1001.38
2016-07-06T02:56:49.946Z,1001.36
2016-07-06T02:57:49.962Z,1001.34
2016-07-06T02:58:49.976Z,1001.35
2016-07-06T02:59:49.998Z,1001.36
2016-07-06T03:00:50.008Z,1001.4
2016-07-06T03:01:50.030Z,1001.3
2016-07-06T03:02:50.050Z,1001.28
2016-07-06T03:03:50.108Z,1001.3
2016-07-06T03:04:50.081Z,1001.31
2016-07-06T03:05:50.146Z,1001.37
2016-07-06T03:06:50.113Z,1001.34
2016-07-06T03:07:50.232Z,1001.36
2016-07-06T03:08:50.149Z,1001.33
2016-07-06T03:09:50.231Z,1001.33
2016-07-06T03:10:50.186Z,1001.32
2016-07-06T03:11:50.233Z,1001.35
2016-07-06T03:12:50.216Z,1001.35
2016-07-06T03:13:50.261Z,1001.36
2016-07-06T03:14:50.256Z,1001.36
2016-07-06T03:15:50.298Z,1001.39
2016-07-06T03:16:50.293Z,1001.42
2016-07-06T03:17:50.320Z,1001.45
2016-07-06T03:18:50.325Z,1001.47
2016-07-06T03:19:50.358Z,1001.41
2016-07-06T03:20:50.358Z,1001.42
2016-07-06T03:21:50.393Z,1001.36
2016-07-06T03:22:50.392Z,1001.42
2016-07-06T03:23:50.414Z,1001.41
2016-07-06T03:24:50.431Z,1001.43
2016-07-06T03:25:50.450Z,1001.47
2016-07-06T03:26:50.467Z,1001.49
2016-07-06T03:27:50.485Z,1001.46
2016-07-06T03:28:50.500Z,1001.44
2016-07-06T03:29:50.517Z,1001.43
2016-07-06T03:30:50.532Z,1001.47
2016-07-06T03:31:50.556Z,1001.45
2016-07-06T03:32:50.571Z,1001.45
2016-07-06T03:33:50.588Z,1001.41
2016-07-06T03:34:50.605Z,1001.4
2016-07-06T03:35:50.623Z,1001.38
2016-07-06T03:36:50.638Z,1001.38
2016-07-06T03:37:50.653Z,1001.3
2016-07-06T03:38:50.676Z,1001.36
2016-07-06T03:39:50.697Z,1001.31
2016-07-06T03:40:50.712Z,1001.34
2016-07-06T03:41:50.727Z,1001.38
2016-07-06T03:42:50.747Z,1001.39
2016-07-06T03:43:50.764Z,1001.37
2016-07-06T03:44:50.777Z,1001.41
2016-07-06T03:45:50.798Z,1001.44
2016-07-06T03:46:50.811Z,1001.47
2016-07-06T03:47:50.831Z,1001.51
2016-07-06T03:48:50.848Z,1001.52
2016-07-06T03:49:50.868Z,1001.49
2016-07-06T03:50:50.885Z,1001.49
2016-07-06T03:51:50.900Z,1001.49
2016-07-06T03:52:50.916Z,1001.5
2016-07-06T03:53:50.939Z,1001.5
2016-07-06T03:54:50.957Z,1001.55
2016-07-06T03:55:50.973Z,1001.58
2016-07-06T03:56:50.990Z,1001.53
2016-07-06T03:57:51.003Z,1001.53
2016-07-06T03:58:51.022Z,1001.55
2016-07-06T03:59:51.041Z,1001.58
2016-07-06T04:00:51.061Z,1001.66
2016-07-06T04:01:51.075Z,1001.65
2016-07-06T04:02:51.096Z,1001.62
2016-07-06T04:03:51.116Z,1001.64
2016-07-06T04:04:51.131Z,1001.66
2016-07-06T04:05:51.195Z,1001.68
2016-07-06T04:06:51.209Z,1001.7
2016-07-06T04:07:51.210Z,1001.69
2016-07-06T04:08:51.205Z,1001.67
2016-07-06T04:09:51.218Z,1001.73
2016-07-06T04:10:51.233Z,1001.69
2016-07-06T04:11:51.251Z,1001.67
2016-07-06T04:12:51.269Z,1001.61
2016-07-06T04:13:51.292Z,1001.68
2016-07-06T04:14:51.300Z,1001.74
2016-07-06T04:15:51.324Z,1001.63
2016-07-06T04:16:51.336Z,1001.6
2016-07-06T04:17:51.356Z,1001.57
2016-07-06T04:18:51.371Z,1001.62
2016-07-06T04:19:51.392Z,1001.61
2016-07-06T04:20:51.409Z,1001.63
2016-07-06T04:21:51.427Z,1001.64
2016-07-06T04:22:51.443Z,1001.62
2016-07-06T04:23:51.465Z,1001.65
2016-07-06T04:24:51.482Z,1001.67
2016-07-06T04:25:51.498Z,1001.68
2016-07-06T04:26:51.513Z,1001.63
2016-07-06T04:27:51.529Z,1001.69
2016-07-06T04:28:51.548Z,1001.71
2016-07-06T04:29:51.561Z,1001.75
2016-07-06T04:30:51.584Z,1001.72
2016-07-06T04:31:51.602Z,1001.72
2016-07-06T04:32:51.622Z,1001.79
2016-07-06T04:33:51.639Z,1001.75
2016-07-06T04:34:51.654Z,1001.83
2016-07-06T04:35:51.672Z,1001.85
2016-07-06T04:36:51.687Z,1001.79
2016-07-06T04:37:51.710Z,1001.8
2016-07-06T04:38:51.725Z,1001.85
2016-07-06T04:39:51.742Z,1001.84
2016-07-06T04:40:51.756Z,1001.9
2016-07-06T04:41:51.776Z,1001.92
2016-07-06T04:42:51.795Z,1001.95
2016-07-06T04:43:51.809Z,1001.98
2016-07-06T04:44:51.831Z,1001.97
2016-07-06T04:45:51.845Z,1001.97
2016-07-06T04:46:51.857Z,1001.92
2016-07-06T04:47:51.883Z,1001.94
2016-07-06T04:48:51.902Z,1001.93
2016-07-06T04:49:51.920Z,1001.89
2016-07-06T04:50:51.936Z,1001.88
2016-07-06T04:51:51.952Z,1001.89
2016-07-06T04:52:51.975Z,1001.86
2016-07-06T04:53:51.991Z,1001.94
2016-07-06T04:54:52.008Z,1001.87
2016-07-06T04:55:52.020Z,1001.89
2016-07-06T04:56:52.040Z,1001.86
2016-07-06T04:57:52.063Z,1001.89
2016-07-06T04:58:52.080Z,1001.9
2016-07-06T04:59:52.096Z,1001.9
2016-07-06T05:00:52.114Z,1001.92
2016-07-06T05:01:52.128Z,1001.96
2016-07-06T05:02:52.142Z,1002.02
2016-07-06T05:03:52.165Z,1001.99
2016-07-06T05:04:52.187Z,1001.95
2016-07-06T05:05:52.199Z,1002.03
2016-07-06T05:06:52.214Z,1001.99
2016-07-06T05:07:52.235Z,1002.04
2016-07-06T05:08:52.252Z,1002.07
2016-07-06T05:09:52.273Z,1002.01
2016-07-06T05:10:52.288Z,1002
2016-07-06T05:11:52.307Z,1002.07
2016-07-06T05:12:52.323Z,1002.13
2016-07-06T05:13:52.340Z,1002.16
2016-07-06T05:14:52.355Z,1002.16
2016-07-06T05:15:52.373Z,1002.19
2016-07-06T05:16:52.396Z,1002.19
2016-07-06T05:17:52.411Z,1002.2
2016-07-06T05:18:52.432Z,1002.28
2016-07-06T05:19:52.450Z,1002.25
2016-07-06T05:20:52.466Z,1002.29
2016-07-06T05:21:52.482Z,1002.31
2016-07-06T05:22:52.501Z,1002.31
2016-07-06T05:23:52.521Z,1002.19
2016-07-06T05:24:52.536Z,1002.29
2016-07-06T05:25:52.554Z,1002.38
2016-07-06T05:26:52.573Z,1002.3
2016-07-06T05:27:52.591Z,1002.33
2016-07-06T05:28:52.609Z,1002.29
2016-07-06T05:29:52.628Z,1002.34
2016-07-06T05:30:52.644Z,1002.31
2016-07-06T05:31:52.661Z,1002.3
2016-07-06T05:32:52.680Z,1002.3
2016-07-06T05:33:52.699Z,1002.31
2016-07-06T05:34:52.717Z,1002.27
2016-07-06T05:35:52.732Z,1002.29
2016-07-06T05:36:52.753Z,1002.27
2016-07-06T05:37:52.769Z,1002.27
2016-07-06T05:38:52.788Z,1002.26
2016-07-06T05:39:52.806Z,1002.34
2016-07-06T05:40:52.825Z,1002.33
2016-07-06T05:41:52.844Z,1002.33
2016-07-06T05:42:52.861Z,1002.35
2016-07-06T05:43:52.880Z,1002.38
2016-07-06T05:44:52.897Z,1002.39
2016-07-06T05:45:52.917Z,1002.41
2016-07-06T05:46:52.934Z,1002.42
2016-07-06T05:47:52.948Z,1002.48
2016-07-06T05:48:52.964Z,1002.53
2016-07-06T05:49:52.988Z,1002.52
2016-07-06T05:50:53.002Z,1002.82
2016-07-06T05:51:53.020Z,1002.63
2016-07-06T05:52:53.038Z,1002.69
2016-07-06T05:53:53.059Z,1002.73
2016-07-06T05:54:53.073Z,1002.7
2016-07-06T05:55:53.092Z,1002.67
2016-07-06T05:56:53.106Z,1002.62
2016-07-06T05:57:53.129Z,1002.58
2016-07-06T05:58:53.143Z,1002.61
2016-07-06T05:59:53.159Z,1002.54
2016-07-06T06:00:53.186Z,1002.55
2016-07-06T06:01:53.201Z,1002.61
2016-07-06T06:02:53.214Z,1002.7
2016-07-06T06:03:53.238Z,1002.59
2016-07-06T06:04:53.257Z,1002.59
2016-07-06T06:05:53.270Z,1002.63
2016-07-06T06:06:53.290Z,1002.6
2016-07-06T06:07:53.308Z,1002.62
2016-07-06T06:08:53.329Z,1002.54
2016-07-06T06:09:53.347Z,1002.62
2016-07-06T06:10:53.367Z,1002.57
2016-07-06T06:11:53.381Z,1002.62
2016-07-06T06:12:53.399Z,1002.58
2016-07-06T06:13:53.421Z,1002.64
2016-07-06T06:14:53.438Z,1002.65
2016-07-06T06:15:53.455Z,1002.69
2016-07-06T06:16:53.474Z,1002.69
2016-07-06T06:17:53.494Z,1002.65
2016-07-06T06:18:53.509Z,1002.62
2016-07-06T06:19:53.531Z,1002.66
2016-07-06T06:20:53.546Z,1002.64
2016-07-06T06:21:53.565Z,1002.68
2016-07-06T06:22:53.579Z,1002.64
2016-07-06T06:23:53.595Z,1002.65
2016-07-06T06:24:53.619Z,1002.68
2016-07-06T06:25:53.639Z,1002.61
2016-07-06T06:26:53.653Z,1002.64
2016-07-06T06:27:53.673Z,1002.7
2016-07-06T06:28:53.692Z,1002.82
2016-07-06T06:29:53.708Z,1002.84
2016-07-06T06:30:53.727Z,1002.9
2016-07-06T06:31:53.744Z,1002.76
2016-07-06T06:32:53.765Z,1002.71
2016-07-06T06:33:53.780Z,1002.76
2016-07-06T06:34:53.800Z,1002.78
2016-07-06T06:35:53.819Z,1002.78
2016-07-06T06:36:53.835Z,1002.75
2016-07-06T06:37:53.849Z,1002.79
2016-07-06T06:38:53.873Z,1002.92
2016-07-06T06:39:53.891Z,1002.9
2016-07-06T06:40:53.906Z,1002.9
2016-07-06T06:41:53.927Z,1002.83
2016-07-06T06:42:53.946Z,1002.85
2016-07-06T06:43:53.964Z,1002.89
2016-07-06T06:44:53.984Z,1002.83
2016-07-06T06:45:54.004Z,1002.85
2016-07-06T06:46:54.017Z,1002.89
2016-07-06T06:47:54.031Z,1002.76
2016-07-06T06:48:54.057Z,1002.74
2016-07-06T06:49:54.072Z,1002.77
2016-07-06T06:50:54.091Z,1002.76
2016-07-06T06:51:54.112Z,1002.79
2016-07-06T06:52:54.124Z,1002.78
2016-07-06T06:53:54.150Z,1002.76
2016-07-06T06:54:54.158Z,1002.77
2016-07-06T06:55:54.184Z,1002.86
2016-07-06T06:56:54.201Z,1002.92
2016-07-06T06:57:54.220Z,1002.91
2016-07-06T06:58:54.235Z,1002.89
2016-07-06T06:59:54.259Z,1002.93
2016-07-06T07:00:54.275Z,1002.89
2016-07-06T07:01:54.294Z,1002.91
2016-07-06T07:02:54.311Z,1003
2016-07-06T07:03:54.327Z,1003.04
2016-07-06T07:04:54.349Z,1003.01
2016-07-06T07:05:54.367Z,1003
2016-07-06T07:06:54.382Z,1002.99
2016-07-06T07:07:54.402Z,1003.01
2016-07-06T07:08:54.419Z,1003.05
2016-07-06T07:09:54.436Z,1003.08
2016-07-06T07:10:54.448Z,1003.2
2016-07-06T07:11:54.473Z,1003.3
2016-07-06T07:12:54.488Z,1003.25
2016-07-06T07:13:54.515Z,1003.19
2016-07-06T07:14:54.530Z,1003.27
2016-07-06T07:15:54.552Z,1003.32
2016-07-06T07:16:54.568Z,1003.26
2016-07-06T07:17:54.586Z,1003.29
2016-07-06T07:18:54.604Z,1003.21
2016-07-06T07:19:54.624Z,1003.19
2016-07-06T07:20:54.644Z,1003.14
2016-07-06T07:21:54.660Z,1003.13
2016-07-06T07:22:54.681Z,1003.12
2016-07-06T07:23:54.698Z,1003.12
2016-07-06T07:24:54.717Z,1003.18
2016-07-06T07:25:54.732Z,1003.16
2016-07-06T07:26:54.761Z,1003.11
2016-07-06T07:27:54.775Z,1003.05
2016-07-06T07:28:54.794Z,1003.07
2016-07-06T07:29:54.816Z,1003.17
2016-07-06T07:30:54.833Z,1003.27
2016-07-06T07:31:54.851Z,1003.28
2016-07-06T07:32:54.872Z,1003.26
2016-07-06T07:33:54.893Z,1003.33
2016-07-06T07:34:54.909Z,1003.18
2016-07-06T07:35:54.936Z,1003.17
2016-07-06T07:36:54.949Z,1003.34
2016-07-06T07:37:54.968Z,1003.22
2016-07-06T07:38:54.989Z,1003.08
2016-07-06T07:39:55.010Z,1003.09
2016-07-06T07:40:55.028Z,1003.14
2016-07-06T07:41:55.047Z,1003.15
2016-07-06T07:42:55.066Z,1003.24
2016-07-06T07:43:55.087Z,1003.14
2016-07-06T07:44:55.108Z,1003.15
2016-07-06T07:45:55.128Z,1003.21
2016-07-06T07:46:55.144Z,1003.24
2016-07-06T07:47:55.161Z,1003.3
2016-07-06T07:48:55.185Z,1003.3
2016-07-06T07:49:55.203Z,1003.33
2016-07-06T07:50:55.220Z,1003.35
2016-07-06T07:51:55.241Z,1003.39
2016-07-06T07:52:55.257Z,1003.32
2016-07-06T07:53:55.280Z,1003.33
2016-07-06T07:54:55.300Z,1003.33
2016-07-06T07:55:55.322Z,1003.36
2016-07-06T07:56:55.335Z,1003.21
2016-07-06T07:57:55.359Z,1003.19
2016-07-06T07:58:55.376Z,1003.2
2016-07-06T07:59:55.398Z,1003.24
2016-07-06T08:00:55.411Z,1003.28
2016-07-06T08:01:55.437Z,1003.41
2016-07-06T08:02:55.453Z,1003.41
2016-07-06T08:03:55.476Z,1003.38
2016-07-06T08:04:55.489Z,1003.34
2016-07-06T08:05:55.511Z,1003.36
2016-07-06T08:06:55.528Z,1003.38
2016-07-06T08:07:55.548Z,1003.38
2016-07-06T08:08:55.569Z,1003.33
2016-07-06T08:09:55.586Z,1003.38
2016-07-06T08:10:55.606Z,1003.37
2016-07-06T08:11:55.626Z,1003.27
2016-07-06T08:12:55.643Z,1003.22
2016-07-06T08:13:55.665Z,1003.26
2016-07-06T08:14:55.682Z,1003.28
2016-07-06T08:15:55.702Z,1003.24
2016-07-06T08:16:55.721Z,1003.2
2016-07-06T08:17:55.741Z,1003.29
2016-07-06T08:18:55.761Z,1003.31
2016-07-06T08:19:55.778Z,1003.4
2016-07-06T08:20:55.799Z,1003.43
2016-07-06T08:21:55.816Z,1003.49
2016-07-06T08:22:55.836Z,1003.53
2016-07-06T08:23:55.858Z,1003.6
2016-07-06T08:24:55.875Z,1003.62
2016-07-06T08:25:55.897Z,1003.54
2016-07-06T08:26:55.915Z,1003.56
2016-07-06T08:27:55.936Z,1003.46
2016-07-06T08:28:55.955Z,1003.45
2016-07-06T08:29:55.974Z,1003.4
2016-07-06T08:30:55.993Z,1003.45
2016-07-06T08:31:56.014Z,1003.56
2016-07-06T08:32:56.027Z,1003.5
2016-07-06T08:33:56.049Z,1003.38
2016-07-06T08:34:56.066Z,1003.41
2016-07-06T08:35:56.091Z,1003.37
2016-07-06T08:36:56.107Z,1003.31
2016-07-06T08:37:56.129Z,1003.31
2016-07-06T08:38:56.145Z,1003.35
2016-07-06T08:39:56.165Z,1003.36
2016-07-06T08:40:56.181Z,1003.49
2016-07-06T08:41:56.205Z,1003.29
2016-07-06T08:42:56.231Z,1003.34
2016-07-06T08:43:56.241Z,1003.24
2016-07-06T08:44:56.263Z,1003.28
2016-07-06T08:45:56.285Z,1003.29
2016-07-06T08:46:56.305Z,1003.28
2016-07-06T08:47:56.322Z,1003.33
2016-07-06T08:48:56.344Z,1003.37
2016-07-06T08:49:56.361Z,1003.32
2016-07-06T08:50:56.383Z,1003.32
2016-07-06T08:51:56.396Z,1003.49
2016-07-06T08:52:56.419Z,1003.39
2016-07-06T08:53:56.435Z,1003.43
2016-07-06T08:54:56.457Z,1003.55
2016-07-06T08:55:56.478Z,1003.57
2016-07-06T08:56:56.496Z,1003.62
2016-07-06T08:57:56.516Z,1003.51
2016-07-06T08:58:56.532Z,1003.54
2016-07-06T08:59:56.554Z,1003.72
2016-07-06T09:00:56.577Z,1003.63
2016-07-06T09:01:56.592Z,1003.58
2016-07-06T09:02:56.615Z,1003.53
2016-07-06T09:03:56.633Z,1003.5
2016-07-06T09:04:56.652Z,1003.47
2016-07-06T09:05:56.673Z,1003.52
2016-07-06T09:06:56.695Z,1003.62
2016-07-06T09:07:56.712Z,1003.63
2016-07-06T09:08:56.733Z,1003.61
2016-07-06T09:09:56.754Z,1003.58
2016-07-06T09:10:56.769Z,1003.6
2016-07-06T09:11:56.792Z,1003.56
2016-07-06T09:12:56.811Z,1003.6
2016-07-06T09:13:56.829Z,1003.72
2016-07-06T09:14:56.847Z,1003.74
2016-07-06T09:15:56.869Z,1003.74
2016-07-06T09:16:56.887Z,1003.75
2016-07-06T09:17:56.905Z,1003.64
2016-07-06T09:18:56.928Z,1003.65
2016-07-06T09:19:56.947Z,1003.71
2016-07-06T09:20:56.967Z,1003.65
2016-07-06T09:21:56.984Z,1003.67
2016-07-06T09:22:57.005Z,1003.59
2016-07-06T09:23:57.026Z,1003.56
2016-07-06T09:24:57.043Z,1003.54
2016-07-06T09:25:57.064Z,1003.6
2016-07-06T09:26:57.082Z,1003.57
2016-07-06T09:27:57.102Z,1003.63
2016-07-06T09:28:57.116Z,1003.62
2016-07-06T09:29:57.141Z,1003.59
2016-07-06T09:30:57.162Z,1003.73
2016-07-06T09:31:57.181Z,1003.71
2016-07-06T09:32:57.198Z,1003.67
2016-07-06T09:33:57.222Z,1003.67
2016-07-06T09:34:57.243Z,1003.71
2016-07-06T09:35:57.261Z,1003.7
2016-07-06T09:36:57.278Z,1003.71
2016-07-06T09:37:57.298Z,1003.75
2016-07-06T09:38:57.319Z,1003.82
2016-07-06T09:39:57.336Z,1003.9
2016-07-06T09:40:57.356Z,1003.84
2016-07-06T09:41:57.383Z,1003.76
2016-07-06T09:42:57.395Z,1003.75
2016-07-06T09:43:57.423Z,1003.68
2016-07-06T09:44:57.439Z,1003.77
2016-07-06T09:45:57.457Z,1003.75
2016-07-06T09:46:57.476Z,1003.8
2016-07-06T09:47:57.499Z,1003.81
2016-07-06T09:48:57.518Z,1003.74
2016-07-06T09:49:57.533Z,1003.68
2016-07-06T09:50:57.562Z,1003.75
2016-07-06T09:51:57.580Z,1003.75
2016-07-06T09:52:57.603Z,1003.75
2016-07-06T09:53:57.618Z,1003.77
2016-07-06T09:54:57.638Z,1003.95
2016-07-06T09:55:57.659Z,1003.88
2016-07-06T09:56:57.681Z,1003.91
2016-07-06T09:57:57.703Z,1004
2016-07-06T09:58:57.724Z,1003.92
2016-07-06T09:59:57.745Z,1003.81
2016-07-06T10:00:57.760Z,1003.73
2016-07-06T10:01:57.778Z,1003.79
2016-07-06T10:02:57.800Z,1003.71
2016-07-06T10:03:57.819Z,1003.79
2016-07-06T10:04:57.843Z,1003.83
2016-07-06T10:05:57.864Z,1003.95
2016-07-06T10:06:57.883Z,1003.86
2016-07-06T10:07:57.902Z,1003.87
2016-07-06T10:08:57.927Z,1003.84
2016-07-06T10:09:57.949Z,1003.97
2016-07-06T10:10:57.964Z,1004.04
2016-07-06T10:11:57.988Z,1004.08
2016-07-06T10:12:58.008Z,1003.98
2016-07-06T10:13:58.027Z,1003.99
2016-07-06T10:14:58.050Z,1003.94
2016-07-06T10:15:58.070Z,1004.03
2016-07-06T10:16:58.090Z,1004.02
2016-07-06T10:17:58.111Z,1004.11
2016-07-06T10:18:58.132Z,1004.03
2016-07-06T10:19:58.156Z,1003.92
2016-07-06T10:20:58.174Z,1003.91
2016-07-06T10:21:58.192Z,1003.92
2016-07-06T10:22:58.214Z,1003.91
2016-07-06T10:23:58.234Z,1003.98
2016-07-06T10:24:58.253Z,1004.01
2016-07-06T10:25:58.278Z,1003.93
2016-07-06T10:26:58.295Z,1003.92
2016-07-06T10:27:58.315Z,1003.99
2016-07-06T10:28:58.335Z,1004.01
2016-07-06T10:29:58.358Z,1003.91
2016-07-06T10:30:58.378Z,1003.93
2016-07-06T10:31:58.396Z,1003.9
2016-07-06T10:32:58.422Z,1003.96
2016-07-06T10:33:58.441Z,1003.94
2016-07-06T10:34:58.463Z,1003.89
2016-07-06T10:35:58.483Z,1003.93
2016-07-06T10:36:58.503Z,1003.82
2016-07-06T10:37:58.525Z,1003.92
2016-07-06T10:38:58.543Z,1003.94
2016-07-06T10:39:58.563Z,1003.97
2016-07-06T10:40:58.587Z,1003.98
2016-07-06T10:41:58.608Z,1004.17
2016-07-06T10:42:58.626Z,1004.19
2016-07-06T10:43:58.658Z,1004.16
2016-07-06T10:44:58.666Z,1004.25
2016-07-06T10:45:58.689Z,1004.16
2016-07-06T10:46:58.711Z,1004.2
2016-07-06T10:47:58.732Z,1004.18
2016-07-06T10:48:58.751Z,1004.23
2016-07-06T10:49:58.773Z,1004.08
2016-07-06T10:50:58.795Z,1004.04
2016-07-06T10:51:58.814Z,1004.06
2016-07-06T10:52:58.837Z,1004.05
2016-07-06T10:53:58.855Z,1003.98
2016-07-06T10:54:58.875Z,1004.08
2016-07-06T10:55:58.900Z,1004.16
2016-07-06T10:56:58.920Z,1004.16
2016-07-06T10:57:58.937Z,1004.17
2016-07-06T10:58:58.962Z,1004.19
2016-07-06T10:59:58.982Z,1004.16
2016-07-06T11:00:59.002Z,1004.19
2016-07-06T11:01:59.024Z,1004.18
2016-07-06T11:02:59.042Z,1004.18
2016-07-06T11:03:59.063Z,1004.07
2016-07-06T11:04:59.085Z,1004.09
2016-07-06T11:05:59.105Z,1004.12
2016-07-06T11:06:59.128Z,1004.13
2016-07-06T11:07:59.147Z,1004.21
2016-07-06T11:08:59.166Z,1004.29
2016-07-06T11:09:59.189Z,1004.41
2016-07-06T11:10:59.212Z,1004.43
2016-07-06T11:11:59.228Z,1004.35
2016-07-06T11:12:59.252Z,1004.34
2016-07-06T11:13:59.274Z,1004.36
2016-07-06T11:14:59.291Z,1004.3
2016-07-06T11:15:59.314Z,1004.27
2016-07-06T11:16:59.337Z,1004.38
2016-07-06T11:17:59.357Z,1004.31
2016-07-06T11:18:59.377Z,1004.41
2016-07-06T11:19:59.398Z,1004.4
2016-07-06T11:20:59.417Z,1004.42
2016-07-06T11:21:59.439Z,1004.44
2016-07-06T11:22:59.459Z,1004.41
2016-07-06T11:23:59.483Z,1004.44
2016-07-06T11:24:59.502Z,1004.38
2016-07-06T11:25:59.523Z,1004.44
2016-07-06T11:26:59.548Z,1004.39
2016-07-06T11:27:59.570Z,1004.39
2016-07-06T11:28:59.587Z,1004.36
2016-07-06T11:29:59.612Z,1004.34
2016-07-06T11:30:59.633Z,1004.31
2016-07-06T11:31:59.645Z,1004.39
2016-07-06T11:32:59.673Z,1004.46
2016-07-06T11:33:59.692Z,1004.28
2016-07-06T11:34:59.719Z,1004.35
2016-07-06T11:35:59.742Z,1004.28
2016-07-06T11:36:59.754Z,1004.28
2016-07-06T11:37:59.782Z,1004.23
2016-07-06T11:38:59.799Z,1004.21
2016-07-06T11:39:59.825Z,1004.25
2016-07-06T11:40:59.845Z,1004.29
2016-07-06T11:41:59.862Z,1004.21
2016-07-06T11:42:59.884Z,1004.25
2016-07-06T11:43:59.904Z,1004.23
2016-07-06T11:44:59.930Z,1004.23
2016-07-06T11:45:59.950Z,1004.17
2016-07-06T11:46:59.965Z,1004.13
2016-07-06T11:47:59.987Z,1004.26
2016-07-06T11:49:00.012Z,1004.28
2016-07-06T11:50:00.029Z,1004.29
2016-07-06T11:51:00.049Z,1004.29
2016-07-06T11:52:00.068Z,1004.31
2016-07-06T11:53:00.090Z,1004.44
2016-07-06T11:54:00.109Z,1004.44
2016-07-06T11:55:00.131Z,1004.35
2016-07-06T11:56:00.152Z,1004.32
2016-07-06T11:57:00.172Z,1004.36
2016-07-06T11:58:00.194Z,1004.29
2016-07-06T11:59:00.215Z,1004.34
2016-07-06T12:00:00.235Z,1004.34
2016-07-06T12:01:00.257Z,1004.36
2016-07-06T12:02:00.278Z,1004.31
2016-07-06T12:03:00.299Z,1004.3
2016-07-06T12:04:00.324Z,1004.31
2016-07-06T12:05:00.346Z,1004.29
2016-07-06T12:06:00.360Z,1004.32
2016-07-06T12:07:00.389Z,1004.26
2016-07-06T12:08:00.409Z,1004.28
2016-07-06T12:09:00.429Z,1004.16